Time;durP1;ratioP1;P1;durP2;ratioP2;P2;SDS_P1;SDS_P2;PMS_P1;PMS_P2;Temp;Humidity;BMP_temperature;BMP_pressure;BME280_temperature;BME280_humidity;BME280_pressure;Samples;Min_cycle;Max_cycle;Signal;HPM_P1;HPM_P2
2022/12/13 00:00:23;;;;;;;32.92;16.73;;;;;;;-7.90;100.00;101181.50;5251246;28;20167;-84
2022/12/13 00:02:55;;;;;;;39.10;17.45;;;;;;;-7.94;100.00;101182.41;5236383;28;20038;-85
2022/12/13 00:05:26;;;;;;;39.58;18.67;;;;;;;-7.93;100.00;101181.53;5228208;28;20042;-84
2022/12/13 00:07:59;;;;;;;43.78;20.30;;;;;;;-7.94;100.00;101183.28;5242162;28;20030;-85
2022/12/13 00:10:30;;;;;;;37.17;16.98;;;;;;;-7.89;100.00;101178.91;5242777;28;20030;-84
2022/12/13 00:13:03;;;;;;;32.90;16.42;;;;;;;-7.81;100.00;101173.63;5225688;28;20489;-85
2022/12/13 00:15:34;;;;;;;36.70;18.17;;;;;;;-7.86;100.00;101172.81;5242588;28;20040;-85
2022/12/13 00:18:06;;;;;;;32.03;17.33;;;;;;;-7.88;100.00;101174.56;5223374;28;20034;-85
2022/12/13 00:20:39;;;;;;;37.42;18.23;;;;;;;-8.01;100.00;101174.72;5225051;28;20057;-85
2022/12/13 00:23:11;;;;;;;44.75;20.83;;;;;;;-7.97;100.00;101166.91;5226050;28;20042;-85
2022/12/13 00:25:42;;;;;;;46.63;21.35;;;;;;;-7.93;100.00;101172.03;5242182;28;20030;-85
2022/12/13 00:28:16;;;;;;;42.28;19.83;;;;;;;-7.93;100.00;101171.19;5244809;28;20025;-85
2022/12/13 00:30:47;;;;;;;42.10;21.25;;;;;;;-7.95;100.00;101168.59;5257244;28;20021;-85
2022/12/13 00:33:19;;;;;;;44.88;21.90;;;;;;;-7.87;100.00;101166.78;5262215;28;20021;-85
2022/12/13 00:35:50;;;;;;;41.75;20.40;;;;;;;-7.95;100.00;101170.34;5241420;28;20025;-84
2022/12/13 00:38:23;;;;;;;38.08;19.10;;;;;;;-8.01;100.00;101164.34;5243787;28;20406;-85
2022/12/13 00:40:54;;;;;;;47.65;21.38;;;;;;;-8.07;100.00;101161.81;5257700;28;20021;-85
2022/12/13 00:43:26;;;;;;;46.17;20.15;;;;;;;-8.07;100.00;101159.22;5242249;28;20052;-84
2022/12/13 00:45:57;;;;;;;36.90;18.00;;;;;;;-8.15;100.00;101168.81;5261900;28;20418;-84
2022/12/13 00:48:29;;;;;;;39.70;18.38;;;;;;;-8.23;100.00;101162.88;5262993;28;20033;-84
2022/12/13 00:51:05;;;;;;;37.55;18.13;;;;;;;-8.28;100.00;101160.31;5261181;28;20033;-85
2022/12/13 00:53:37;;;;;;;32.78;17.40;;;;;;;-8.32;100.00;101165.56;5251949;28;20493;-83
2022/12/13 00:56:13;;;;;;;38.25;18.45;;;;;;;-8.40;100.00;101160.44;5240840;28;20041;-85
2022/12/13 00:58:45;;;;;;;31.88;16.52;;;;;;;-8.50;100.00;101151.06;5259912;28;20068;-84
2022/12/13 01:01:20;;;;;;;38.80;18.98;;;;;;;-8.51;100.00;101157.97;5259951;28;20037;-84
2022/12/13 01:03:57;;;;;;;34.95;17.00;;;;;;;-8.49;100.00;101151.06;5259382;28;20045;-85
2022/12/13 01:06:44;;;;;;;38.08;18.42;;;;;;;-8.55;100.00;101153.72;5256727;28;20394;-85
2022/12/13 01:09:19;;;;;;;38.75;18.27;;;;;;;-8.58;100.00;101146.81;5261962;28;20112;-85
2022/12/13 01:11:50;;;;;;;38.05;17.85;;;;;;;-8.52;100.00;101153.66;5254932;28;20148;-84
2022/12/13 01:14:22;;;;;;;37.33;19.38;;;;;;;-8.65;100.00;101159.84;5257559;28;20035;-84
2022/12/13 01:16:54;;;;;;;31.80;16.95;;;;;;;-8.70;100.00;101149.50;5240841;28;20565;-86
2022/12/13 01:19:27;;;;;;;35.85;17.42;;;;;;;-8.74;100.00;101150.41;5260935;28;20560;-85
2022/12/13 01:22:06;;;;;;;42.10;20.30;;;;;;;-8.75;100.00;101148.69;5245510;28;20029;-85
2022/12/13 01:24:37;;;;;;;42.70;20.92;;;;;;;-8.75;100.00;101139.22;5241402;28;20036;-85
2022/12/13 01:27:09;;;;;;;43.47;20.33;;;;;;;-8.71;100.00;101145.22;5248080;28;20073;-86
2022/12/13 01:29:43;;;;;;;46.47;20.38;;;;;;;-8.61;100.00;101143.41;5256835;28;20083;-85
2022/12/13 01:32:14;;;;;;;44.03;21.65;;;;;;;-8.56;100.00;101139.06;5258579;28;20029;-83
2022/12/13 01:34:46;;;;;;;45.78;20.67;;;;;;;-8.56;100.00;101145.06;5260371;28;20802;-85
2022/12/13 01:37:19;;;;;;;47.67;23.23;;;;;;;-8.40;100.00;101147.50;5259431;28;20456;-85
2022/12/13 01:39:50;;;;;;;47.60;22.73;;;;;;;-8.32;100.00;101155.19;5257415;28;20071;-85
2022/12/13 01:42:22;;;;;;;47.90;22.02;;;;;;;-8.17;100.00;101148.13;5260138;28;20132;-84
2022/12/13 01:45:02;;;;;;;47.70;20.85;;;;;;;-8.09;100.00;101152.38;5259169;28;20032;-85
2022/12/13 01:47:42;;;;;;;48.42;22.17;;;;;;;-7.94;100.00;101159.97;5255111;28;20045;-85
2022/12/13 01:50:41;;;;;;;51.35;23.77;;;;;;;-7.86;100.00;101158.13;5257851;28;20028;-84
2022/12/13 01:53:19;;;;;;;49.90;23.02;;;;;;;-7.73;100.00;101160.56;5257409;28;20128;-84
2022/12/13 01:55:56;;;;;;;51.63;24.05;;;;;;;-7.67;100.00;101156.19;5255913;28;20065;-84
2022/12/13 01:58:27;;;;;;;46.17;23.33;;;;;;;-7.57;100.00;101154.34;5257234;28;20109;-84
2022/12/13 02:00:59;;;;;;;46.92;22.55;;;;;;;-7.52;100.00;101156.84;5257561;28;20049;-86
2022/12/13 02:03:32;;;;;;;49.08;22.70;;;;;;;-7.53;100.00;101158.59;5256788;28;20025;-86
2022/12/13 02:06:15;;;;;;;57.45;23.25;;;;;;;-7.48;100.00;101156.81;5275402;28;20350;-84
2022/12/13 02:08:46;;;;;;;45.22;22.30;;;;;;;-7.45;100.00;101155.91;5276486;28;20525;-85
2022/12/13 02:11:18;;;;;;;49.60;23.17;;;;;;;-7.44;100.00;101147.25;5256007;28;20056;-85
2022/12/13 02:13:50;;;;;;;47.97;22.58;;;;;;;-7.38;100.00;101154.97;5263698;28;20029;-84
2022/12/13 02:16:27;;;;;;;48.15;22.88;;;;;;;-7.39;100.00;101144.63;5263328;28;20030;-84
2022/12/13 02:19:01;;;;;;;47.42;22.67;;;;;;;-7.31;100.00;101142.75;5260032;28;20389;-84
2022/12/13 02:21:52;;;;;;;47.80;23.10;;;;;;;-7.34;100.00;101150.59;5281084;28;20026;-85
2022/12/13 02:24:47;;;;;;;47.42;23.65;;;;;;;-7.33;100.00;101153.13;5268150;28;20037;-85
2022/12/13 02:27:50;;;;;;;54.60;22.63;;;;;;;-7.33;100.00;101149.69;5283246;28;20489;-85
2022/12/13 02:30:31;;;;;;;41.53;21.45;;;;;;;-7.35;100.00;101149.72;5268102;28;20454;-84
2022/12/13 02:33:29;;;;;;;48.28;22.58;;;;;;;-7.38;100.00;101149.78;5277628;28;20041;-85
2022/12/13 02:36:06;;;;;;;46.85;22.73;;;;;;;-7.41;100.00;101142.03;5294290;28;20026;-84
2022/12/13 02:38:52;;;;;;;50.42;22.80;;;;;;;-7.37;100.00;101145.44;5269739;28;20490;-84
2022/12/13 02:41:35;;;;;;;43.95;21.20;;;;;;;-7.42;100.00;101140.31;5277987;28;20021;-84
2022/12/13 02:44:11;;;;;;;48.72;22.55;;;;;;;-7.36;100.00;101141.97;5278234;28;20026;-85
2022/12/13 02:46:51;;;;;;;46.92;22.15;;;;;;;-7.35;100.00;101147.13;5278611;28;20025;-84
2022/12/13 02:49:26;;;;;;;45.22;22.65;;;;;;;-7.33;100.00;101135.00;5279185;28;20104;-85
2022/12/13 02:52:00;;;;;;;46.13;23.27;;;;;;;-7.32;100.00;101131.53;5262413;28;20037;-85
2022/12/13 02:54:32;;;;;;;49.50;23.38;;;;;;;-7.29;100.00;101125.44;5258923;28;20030;-85
2022/12/13 02:57:03;;;;;;;47.60;24.50;;;;;;;-7.32;100.00;101123.75;5272169;28;20026;-85
2022/12/13 02:59:38;;;;;;;49.40;22.50;;;;;;;-7.28;100.00;101121.97;5259663;28;20110;-85
2022/12/13 03:02:31;;;;;;;43.30;22.20;;;;;;;-7.33;100.00;101119.44;5268696;28;20382;-84
2022/12/13 03:08:45;;;;;;;46.58;22.17;;;;;;;-7.25;100.00;101120.19;5256725;28;20502;-85
2022/12/13 03:11:20;;;;;;;48.38;22.35;;;;;;;-7.25;100.00;101111.56;5267489;28;20029;-85
2022/12/13 03:13:59;;;;;;;51.05;23.23;;;;;;;-7.26;100.00;101115.91;5257466;28;21022;-85
2022/12/13 03:16:43;;;;;;;46.88;22.42;;;;;;;-7.27;100.00;101116.78;5246839;28;20096;-85
2022/12/13 03:19:14;;;;;;;49.92;23.23;;;;;;;-7.27;100.00;101121.13;5255327;28;20450;-85
2022/12/13 03:21:48;;;;;;;52.88;24.02;;;;;;;-7.25;100.00;101124.53;5271843;28;20132;-85
2022/12/13 03:24:20;;;;;;;51.40;23.05;;;;;;;-7.24;100.00;101118.44;5255236;28;20045;-84
2022/12/13 03:26:51;;;;;;;50.63;22.45;;;;;;;-7.32;100.00;101112.53;5254205;28;20108;-85
2022/12/13 03:29:23;;;;;;;50.65;22.45;;;;;;;-7.30;100.00;101121.16;5253887;28;20029;-85
2022/12/13 03:31:54;;;;;;;47.72;23.48;;;;;;;-7.32;100.00;101117.72;5250636;28;20529;-85
2022/12/13 03:34:26;;;;;;;49.63;23.13;;;;;;;-7.36;100.00;101122.09;5255161;28;20053;-84
2022/12/13 03:36:57;;;;;;;50.03;22.25;;;;;;;-7.40;100.00;101120.41;5254144;28;20418;-84
2022/12/13 03:39:29;;;;;;;54.75;22.92;;;;;;;-7.35;100.00;101116.03;5254412;28;20113;-85
2022/12/13 03:42:03;;;;;;;44.75;20.65;;;;;;;-7.42;100.00;101117.84;5270560;28;20026;-85
2022/12/13 03:44:35;;;;;;;46.67;22.98;;;;;;;-7.47;100.00;101109.31;5255817;28;21843;-85
2022/12/13 03:47:09;;;;;;;47.67;22.08;;;;;;;-7.43;100.00;101113.56;5255412;28;20113;-85
2022/12/13 03:49:41;;;;;;;48.95;22.38;;;;;;;-7.45;100.00;101106.66;5256467;28;20041;-85
2022/12/13 03:52:12;;;;;;;44.03;21.83;;;;;;;-7.48;100.00;101104.13;5256319;28;20025;-85
2022/12/13 03:54:43;;;;;;;41.92;21.08;;;;;;;-7.46;100.00;101108.41;5255616;28;20033;-85
2022/12/13 03:57:15;;;;;;;41.05;20.90;;;;;;;-7.48;100.00;101111.91;5256321;28;20117;-85
2022/12/13 03:59:46;;;;;;;49.83;20.05;;;;;;;-7.48;100.00;101110.16;5270721;28;20124;-85
2022/12/13 04:02:18;;;;;;;46.10;22.70;;;;;;;-7.45;100.00;101110.13;5254473;28;20037;-85
2022/12/13 04:04:49;;;;;;;44.17;22.13;;;;;;;-7.47;100.00;101105.81;5256161;28;20178;-84
2022/12/13 04:07:21;;;;;;;42.65;21.08;;;;;;;-7.44;100.00;101105.78;5270388;28;20500;-85
2022/12/13 04:09:52;;;;;;;46.63;21.90;;;;;;;-7.39;100.00;101098.81;5257085;28;20120;-85
2022/12/13 04:15:14;;;;;;;50.90;21.70;;;;;;;-7.27;100.00;101108.16;5256413;28;20037;-84
2022/12/13 04:17:45;;;;;;;49.03;22.25;;;;;;;-7.10;100.00;101103.56;5254454;28;20051;-85
2022/12/13 04:20:16;;;;;;;48.60;22.73;;;;;;;-7.04;100.00;101100.00;5271538;28;20030;-84
2022/12/13 04:22:48;;;;;;;49.67;23.63;;;;;;;-6.96;100.00;101100.75;5270534;28;20390;-84
2022/12/13 04:25:19;;;;;;;46.78;23.35;;;;;;;-6.88;100.00;101101.47;5253932;28;20026;-85
2022/12/13 04:27:51;;;;;;;47.88;22.38;;;;;;;-6.77;100.00;101103.03;5254478;28;20044;-84
2022/12/13 04:30:22;;;;;;;47.97;23.23;;;;;;;-6.79;100.00;101094.44;5254916;28;20041;-85
2022/12/13 04:32:53;;;;;;;49.60;23.13;;;;;;;-6.77;100.00;101095.25;5250901;28;20022;-84
2022/12/13 04:35:25;;;;;;;48.13;23.55;;;;;;;-6.77;100.00;101097.84;5256417;28;20096;-84
2022/12/13 04:37:56;;;;;;;49.85;23.63;;;;;;;-6.75;100.00;101101.25;5255184;28;20458;-84
2022/12/13 04:40:28;;;;;;;49.20;23.35;;;;;;;-6.67;100.00;101100.25;5270797;28;20112;-84
2022/12/13 04:42:59;;;;;;;48.05;23.92;;;;;;;-6.66;100.00;101099.38;5253030;28;20496;-84
2022/12/13 04:45:31;;;;;;;46.80;21.90;;;;;;;-6.63;100.00;101088.06;5253304;28;20053;-84
2022/12/13 04:48:02;;;;;;;49.75;22.63;;;;;;;-6.67;100.00;101089.03;5270716;28;20399;-84
2022/12/13 04:50:34;;;;;;;51.75;24.50;;;;;;;-6.72;100.00;101086.50;5252988;28;20906;-85
2022/12/13 04:53:05;;;;;;;43.17;22.63;;;;;;;-6.80;100.00;101087.50;5274024;28;20033;-84
2022/12/13 04:55:37;;;;;;;47.72;23.23;;;;;;;-6.83;100.00;101082.41;5256011;28;20398;-84
2022/12/13 04:58:11;;;;;;;55.13;24.35;;;;;;;-6.83;100.00;101088.44;5257890;28;20426;-85
2022/12/13 05:00:43;;;;;;;48.50;23.65;;;;;;;-6.93;100.00;101089.47;5256056;28;20144;-85
2022/12/13 05:03:14;;;;;;;48.83;23.85;;;;;;;-6.99;100.00;101087.84;5263991;28;20128;-84
2022/12/13 05:05:46;;;;;;;48.90;24.70;;;;;;;-7.03;100.00;101087.03;5268472;28;20033;-84
2022/12/13 05:08:17;;;;;;;54.05;23.85;;;;;;;-7.04;100.00;101085.31;5292033;28;20156;-84
2022/12/13 05:10:48;;;;;;;47.20;24.05;;;;;;;-7.06;100.00;101084.47;5269641;28;20037;-84
2022/12/13 05:13:20;;;;;;;48.55;24.15;;;;;;;-7.10;100.00;101085.41;5269253;28;20553;-84
2022/12/13 05:15:59;;;;;;;52.75;24.42;;;;;;;-7.09;100.00;101088.84;5260363;28;20032;-85
2022/12/13 05:18:31;;;;;;;47.95;23.10;;;;;;;-7.13;100.00;101082.88;5257897;28;20025;-84
2022/12/13 05:21:05;;;;;;;44.17;22.90;;;;;;;-7.15;100.00;101078.56;5260888;28;20041;-85
2022/12/13 05:23:40;;;;;;;53.67;25.10;;;;;;;-7.20;100.00;101080.38;5257086;28;21834;-85
2022/12/13 05:26:11;;;;;;;52.10;24.10;;;;;;;-7.20;100.00;101077.78;5252008;28;20077;-85
2022/12/13 05:28:43;;;;;;;51.40;25.17;;;;;;;-7.23;100.00;101071.75;5222973;28;20030;-85
2022/12/13 05:31:14;;;;;;;52.55;25.60;;;;;;;-7.26;100.00;101071.84;5221666;28;20165;-85
2022/12/13 05:33:45;;;;;;;49.80;24.38;;;;;;;-7.29;100.00;101069.28;5220830;28;20029;-85
2022/12/13 05:36:17;;;;;;;51.63;24.02;;;;;;;-7.28;100.00;101064.94;5225678;28;20052;-85
2022/12/13 05:38:49;;;;;;;49.53;22.77;;;;;;;-7.29;100.00;101064.09;5226027;28;20672;-85
2022/12/13 05:41:25;;;;;;;45.67;23.20;;;;;;;-7.33;100.00;101065.00;5219695;28;20021;-85
2022/12/13 05:43:57;;;;;;;46.60;23.80;;;;;;;-7.38;100.00;101061.66;5236724;28;20141;-85
2022/12/13 05:46:28;;;;;;;47.17;23.02;;;;;;;-7.39;100.00;101064.28;5235597;28;20537;-84
2022/12/13 05:48:59;;;;;;;54.30;23.13;;;;;;;-7.38;100.00;101059.06;5218677;28;20057;-84
2022/12/13 05:51:31;;;;;;;44.53;21.75;;;;;;;-7.41;100.00;101059.94;5236046;28;20041;-84
2022/12/13 05:54:03;;;;;;;54.20;23.45;;;;;;;-7.41;100.00;101059.94;5219560;28;20033;-85
2022/12/13 05:56:34;;;;;;;46.95;23.10;;;;;;;-7.47;100.00;101048.81;5216633;28;20030;-84
2022/12/13 05:59:05;;;;;;;51.80;25.35;;;;;;;-7.46;100.00;101061.75;5217662;28;20033;-84
2022/12/13 06:01:37;;;;;;;56.97;26.52;;;;;;;-7.53;100.00;101057.53;5219427;28;20022;-84
2022/12/13 06:04:08;;;;;;;58.30;25.70;;;;;;;-7.52;100.00;101058.38;5236106;28;20032;-84
2022/12/13 06:06:40;;;;;;;56.13;26.55;;;;;;;-7.56;100.00;101062.75;5234815;28;20533;-84
2022/12/13 06:09:11;;;;;;;54.25;24.70;;;;;;;-7.61;100.00;101062.84;5242680;28;20032;-84
2022/12/13 06:11:42;;;;;;;46.42;21.42;;;;;;;-7.67;100.00;101068.09;5237483;28;20026;-84
2022/12/13 06:14:14;;;;;;;47.17;21.20;;;;;;;-7.68;100.00;101062.94;5213621;28;20029;-85
2022/12/13 06:16:46;;;;;;;47.17;20.75;;;;;;;-7.77;100.00;101071.69;5222153;28;20026;-84
2022/12/13 06:19:19;;;;;;;52.13;22.83;;;;;;;-7.82;100.00;101065.72;5222650;28;20033;-85
2022/12/13 06:21:53;;;;;;;41.38;21.17;;;;;;;-7.83;100.00;101071.78;5220126;28;20022;-85
2022/12/13 06:24:26;;;;;;;44.92;21.17;;;;;;;-7.85;100.00;101066.63;5239039;28;22133;-85
2022/12/13 06:26:58;;;;;;;49.33;21.67;;;;;;;-7.78;100.00;101064.81;5251249;28;20048;-85
2022/12/13 06:29:30;;;;;;;45.88;21.88;;;;;;;-7.84;100.00;101065.72;5244701;28;20536;-85
2022/12/13 06:32:02;;;;;;;47.38;21.20;;;;;;;-7.88;100.00;101064.06;5244799;28;20057;-85
2022/12/13 06:34:35;;;;;;;45.08;21.55;;;;;;;-7.89;100.00;101071.84;5245357;28;20057;-85
2022/12/13 06:37:10;;;;;;;43.42;21.42;;;;;;;-7.91;100.00;101065.84;5240934;28;20372;-86
2022/12/13 06:39:42;;;;;;;46.30;21.55;;;;;;;-7.89;100.00;101072.72;5250111;28;20041;-85
2022/12/13 06:42:16;;;;;;;46.38;22.20;;;;;;;-7.93;100.00;101070.19;5242494;28;20088;-86
2022/12/13 06:44:50;;;;;;;48.28;22.23;;;;;;;-7.95;100.00;101071.94;5234102;28;20394;-85
2022/12/13 06:47:22;;;;;;;46.55;21.08;;;;;;;-7.99;100.00;101069.38;5240397;28;20030;-84
2022/12/13 06:49:54;;;;;;;45.08;22.08;;;;;;;-7.93;100.00;101072.78;5257857;28;20037;-85
2022/12/13 06:52:25;;;;;;;46.00;21.95;;;;;;;-7.92;100.00;101066.69;5242230;28;20036;-85
2022/12/13 06:54:56;;;;;;;46.90;22.95;;;;;;;-7.90;100.00;101063.25;5242714;28;20026;-85
2022/12/13 06:57:31;;;;;;;57.03;23.60;;;;;;;-7.80;100.00;101061.38;5259187;28;20032;-85
2022/12/13 07:00:04;;;;;;;55.03;24.23;;;;;;;-7.74;100.00;101061.28;5241307;28;20419;-84
2022/12/13 07:02:36;;;;;;;53.55;23.92;;;;;;;-7.64;100.00;101068.06;5241846;28;20033;-85
2022/12/13 07:05:09;;;;;;;49.85;22.85;;;;;;;-7.60;100.00;101067.13;5246782;28;20051;-85
2022/12/13 07:07:40;;;;;;;59.08;26.98;;;;;;;-7.49;100.00;101063.53;5261210;28;20032;-84
2022/12/13 07:10:11;;;;;;;57.83;26.33;;;;;;;-7.36;100.00;101067.66;5244657;28;20025;-83
2022/12/13 07:12:43;;;;;;;54.00;25.63;;;;;;;-7.28;100.00;101068.38;5257470;28;20141;-83
2022/12/13 07:15:14;;;;;;;66.25;27.55;;;;;;;-7.20;100.00;101065.69;5256430;28;20037;-83
2022/12/13 07:17:49;;;;;;;58.63;27.65;;;;;;;-7.17;100.00;101064.78;5245169;28;20060;-83
2022/12/13 07:20:22;;;;;;;59.95;25.73;;;;;;;-7.23;100.00;101052.78;5257496;28;20502;-87
2022/12/13 07:22:55;;;;;;;62.05;28.75;;;;;;;-7.15;100.00;101060.41;5239686;28;20580;-84
2022/12/13 07:25:26;;;;;;;59.85;27.70;;;;;;;-7.19;100.00;101069.97;5240689;28;20037;-83
2022/12/13 07:28:04;;;;;;;59.83;27.20;;;;;;;-7.12;100.00;101060.38;5237656;28;20037;-84
2022/12/13 07:30:37;;;;;;;62.50;28.77;;;;;;;-7.11;100.00;101065.53;5221580;28;20034;-82
2022/12/13 07:33:09;;;;;;;59.08;28.73;;;;;;;-7.04;100.00;101059.38;5220011;28;20034;-82
2022/12/13 07:35:44;;;;;;;63.00;28.50;;;;;;;-6.95;100.00;101062.69;5228852;28;20037;-86
2022/12/13 07:38:15;;;;;;;65.13;29.52;;;;;;;-6.85;100.00;101069.44;5248190;28;20044;-82
2022/12/13 07:40:47;;;;;;;66.88;30.00;;;;;;;-6.85;100.00;101074.63;5229835;28;20017;-84
2022/12/13 07:43:18;;;;;;;66.45;30.35;;;;;;;-6.91;100.00;101065.19;5247699;28;20050;-79
2022/12/13 07:45:50;;;;;;;61.75;27.70;;;;;;;-6.91;100.00;101065.19;5259889;28;20034;-81
2022/12/13 07:48:22;;;;;;;66.05;30.20;;;;;;;-6.92;100.00;101067.84;5241428;28;20030;-82
2022/12/13 07:50:59;;;;;;;65.38;29.70;;;;;;;-6.90;100.00;101079.03;5236254;28;20041;-82
2022/12/13 07:53:30;;;;;;;64.25;29.38;;;;;;;-6.89;100.00;101089.41;5241370;28;20091;-82
2022/12/13 07:56:20;;;;;;;64.78;29.33;;;;;;;-6.80;100.00;101087.50;5232887;28;20022;-86
2022/12/13 07:58:51;;;;;;;74.00;31.88;;;;;;;-6.76;100.00;101082.25;5239270;28;20033;-84
2022/12/13 08:01:23;;;;;;;74.35;32.92;;;;;;;-6.71;100.00;101087.38;5220680;28;20029;-84
2022/12/13 08:03:55;;;;;;;72.20;32.95;;;;;;;-6.68;100.00;101080.38;5229241;28;20033;-83
2022/12/13 08:06:26;;;;;;;76.28;32.63;;;;;;;-6.61;100.00;101080.25;5226243;28;20022;-84
2022/12/13 08:08:57;;;;;;;69.88;32.58;;;;;;;-6.54;100.00;101077.56;5221250;28;20037;-82
2022/12/13 08:11:29;;;;;;;74.35;32.80;;;;;;;-6.45;100.00;101081.72;5235646;28;20053;-82
2022/12/13 08:14:00;;;;;;;76.97;32.83;;;;;;;-6.37;100.00;101076.38;5235993;28;20120;-82
2022/12/13 08:16:31;;;;;;;81.60;34.92;;;;;;;-6.22;100.00;101081.28;5234903;28;20030;-82
2022/12/13 08:19:03;;;;;;;75.55;33.35;;;;;;;-6.14;100.00;101084.56;5239802;28;20046;-82
2022/12/13 08:21:35;;;;;;;77.32;34.33;;;;;;;-6.01;100.00;101084.31;5240593;28;20038;-82
2022/12/13 08:24:07;;;;;;;83.57;34.25;;;;;;;-5.92;100.00;101077.16;5235076;28;20378;-82
2022/12/13 08:26:38;;;;;;;79.32;33.30;;;;;;;-5.83;100.00;101080.47;5232812;28;20056;-82
2022/12/13 08:29:11;;;;;;;81.60;35.90;;;;;;;-5.72;100.00;101084.53;5261564;28;20040;-82
2022/12/13 08:31:42;;;;;;;74.90;34.40;;;;;;;-5.62;100.00;101081.75;5260125;28;20540;-82
2022/12/13 08:34:14;;;;;;;82.22;35.58;;;;;;;-5.46;100.00;101096.09;5262735;28;20026;-83
2022/12/13 08:36:45;;;;;;;84.63;37.38;;;;;;;-5.38;100.00;101090.72;5261255;28;20116;-84
2022/12/13 08:39:33;;;;;;;92.00;38.60;;;;;;;-5.22;100.00;101096.47;5260924;28;20065;-86
2022/12/13 08:42:34;;;;;;;86.22;37.55;;;;;;;-5.09;100.00;101090.06;5248738;28;20429;-90
2022/12/13 08:45:02;;;;;;;89.18;37.70;;;;;;;-5.04;100.00;101084.75;5259152;28;20045;-82
2022/12/13 08:47:33;;;;;;;84.72;36.88;;;;;;;-4.92;100.00;101101.81;5257759;28;20482;-82
2022/12/13 08:50:05;;;;;;;85.13;38.70;;;;;;;-4.87;100.00;101093.00;5263294;28;20030;-82
2022/12/13 08:52:36;;;;;;;80.70;37.50;;;;;;;-4.78;100.00;101092.75;5277621;28;20037;-84
2022/12/13 08:55:09;;;;;;;83.38;38.88;;;;;;;-4.71;100.00;101097.84;5275798;28;20021;-85
2022/12/13 08:57:41;;;;;;;85.93;38.33;;;;;;;-4.64;100.00;101102.81;5275025;28;20057;-82
2022/12/13 09:00:16;;;;;;;90.43;41.30;;;;;;;-4.53;100.00;101110.34;5258449;28;20022;-82
2022/12/13 09:02:47;;;;;;;89.18;38.83;;;;;;;-4.36;100.00;101112.53;5258639;28;20037;-83
2022/12/13 09:05:18;;;;;;;84.63;38.38;;;;;;;-4.22;100.00;101112.16;5257894;28;20730;-82
2022/12/13 09:07:55;;;;;;;84.18;39.38;;;;;;;-4.07;100.00;101105.66;5283867;28;20409;-83
2022/12/13 09:10:26;;;;;;;91.18;42.08;;;;;;;-3.97;100.00;101098.47;5258133;28;20084;-83
2022/12/13 09:13:00;;;;;;;88.45;40.42;;;;;;;-3.92;100.00;101110.44;5257971;28;20026;-83
2022/12/13 09:15:32;;;;;;;82.72;39.83;;;;;;;-3.87;100.00;101112.94;5255669;28;20084;-84
2022/12/13 09:18:03;;;;;;;80.32;39.10;;;;;;;-3.91;100.00;101093.94;5259285;28;20037;-82
2022/12/13 09:20:36;;;;;;;85.70;38.08;;;;;;;-3.82;100.00;101105.84;5255848;28;20028;-85
2022/12/13 09:23:08;;;;;;;80.10;38.05;;;;;;;-3.76;100.00;101104.81;5265375;28;20580;-83
2022/12/13 09:25:40;;;;;;;82.07;40.88;;;;;;;-3.69;100.00;101107.19;5264416;28;20030;-83
2022/12/13 09:28:11;;;;;;;76.03;36.20;;;;;;;-3.64;100.00;101105.28;5265897;28;20053;-85
2022/12/13 09:30:42;;;;;;;75.68;37.40;;;;;;;-3.61;100.00;101104.38;5263350;28;20364;-82
2022/12/13 09:33:14;;;;;;;74.60;36.95;;;;;;;-3.58;100.00;101099.03;5263873;28;20088;-82
2022/12/13 09:35:46;;;;;;;73.03;36.05;;;;;;;-3.53;100.00;101104.97;5259520;28;20032;-83
2022/12/13 09:38:17;;;;;;;74.05;36.88;;;;;;;-3.48;100.00;101107.44;5262140;28;20309;-83
2022/12/13 09:40:52;;;;;;;72.00;36.30;;;;;;;-3.48;100.00;101103.06;5244986;28;20120;-83
2022/12/13 09:43:28;;;;;;;65.18;34.38;;;;;;;-3.44;100.00;101104.72;5262575;28;20041;-83
2022/12/13 09:46:05;;;;;;;69.60;34.38;;;;;;;-3.30;100.00;101099.03;5241051;28;20018;-83
2022/12/13 09:48:37;;;;;;;69.55;36.60;;;;;;;-3.29;100.00;101105.97;5248970;28;20045;-83
2022/12/13 09:51:09;;;;;;;68.97;34.13;;;;;;;-3.32;100.00;101106.06;5250593;28;20032;-83
2022/12/13 09:53:49;;;;;;;66.40;33.47;;;;;;;-3.12;100.00;101107.19;5266278;28;20463;-85
2022/12/13 09:56:23;;;;;;;68.13;35.95;;;;;;;-3.06;100.00;101096.59;5239818;28;20371;-83
2022/12/13 09:58:55;;;;;;;67.47;35.47;;;;;;;-3.05;100.00;101100.88;5259207;28;20104;-83
2022/12/13 10:01:27;;;;;;;66.10;34.58;;;;;;;-2.97;100.00;101096.28;5240957;28;20188;-83
2022/12/13 10:03:59;;;;;;;63.75;32.80;;;;;;;-2.97;100.00;101098.88;5244367;28;20042;-83
2022/12/13 10:06:33;;;;;;;66.53;34.80;;;;;;;-2.85;100.00;101090.66;5257606;28;20053;-82
2022/12/13 10:09:08;;;;;;;64.82;33.30;;;;;;;-2.76;100.00;101096.47;5244398;28;20065;-83
2022/12/13 10:11:48;;;;;;;63.47;33.42;;;;;;;-2.57;100.00;101086.28;5245768;28;20103;-83
2022/12/13 10:14:19;;;;;;;61.50;34.05;;;;;;;-2.51;100.00;101081.69;5253480;28;20022;-83
2022/12/13 10:16:56;;;;;;;62.60;34.90;;;;;;;-2.37;100.00;101080.34;5250531;28;20374;-83
2022/12/13 10:19:43;;;;;;;61.38;31.75;;;;;;;-2.18;100.00;101070.09;5279553;28;20037;-83
2022/12/13 10:22:17;;;;;;;59.53;32.53;;;;;;;-2.29;100.00;101084.41;5287791;28;20574;-82
2022/12/13 10:25:02;;;;;;;54.60;30.50;;;;;;;-2.16;100.00;101084.81;5284219;28;20038;-82
2022/12/13 10:27:45;;;;;;;55.55;31.20;;;;;;;-2.03;100.00;101077.38;5273984;28;20042;-82
2022/12/13 10:30:23;;;;;;;49.42;28.67;;;;;;;-2.00;100.00;101055.50;5239549;28;20106;-82
2022/12/13 10:33:02;;;;;;;50.78;28.25;;;;;;;-1.94;100.00;101053.50;5257924;28;20105;-83
2022/12/13 10:35:37;;;;;;;52.13;29.35;;;;;;;-1.82;100.00;101052.22;5258130;28;20073;-82
2022/12/13 10:38:09;;;;;;;51.22;27.70;;;;;;;-1.86;100.00;101047.97;5247845;28;20068;-82
2022/12/13 10:40:44;;;;;;;50.22;27.00;;;;;;;-1.81;100.00;101048.66;5239727;28;20036;-83
2022/12/13 10:43:21;;;;;;;52.90;28.17;;;;;;;-1.92;100.00;101058.69;5261732;28;20080;-82
2022/12/13 10:45:55;;;;;;;;;;;;;;;-1.78;100.00;101055.56;5241689;28;20021;-83
2022/12/13 10:48:33;;;;;;;45.58;25.33;;;;;;;-1.94;100.00;101052.66;5258238;28;19924;-83
2022/12/13 10:51:17;;;;;;;46.22;24.33;;;;;;;-1.92;100.00;101049.06;5242338;28;20030;-83
2022/12/13 10:53:48;;;;;;;48.22;26.55;;;;;;;-1.86;100.00;101034.06;5244722;28;20086;-84
2022/12/13 10:56:21;;;;;;;49.95;29.38;;;;;;;-1.60;100.00;101031.28;5243039;28;20386;-82
2022/12/13 10:59:24;;;;;;;45.65;25.92;;;;;;;-1.13;100.00;101038.16;5261043;28;20037;-82
2022/12/13 11:01:56;;;;;;;48.50;26.80;;;;;;;-0.10;100.00;101027.66;5233393;28;20029;-82
2022/12/13 11:04:33;;;;;;;45.13;27.40;;;;;;;0.95;100.00;101020.94;5244806;28;20033;-83
2022/12/13 11:07:23;;;;;;;;;;;;;;;1.69;100.00;101011.91;5242064;28;20116;-83
2022/12/13 11:09:56;;;;;;;42.80;23.50;;;;;;;2.14;100.00;101006.88;5262104;28;20440;-82
2022/12/13 11:12:27;;;;;;;37.58;23.23;;;;;;;3.84;100.00;101009.28;5261990;28;20024;-83
2022/12/13 11:15:01;;;;;;;34.25;20.48;;;;;;;5.58;100.00;101007.66;5261025;28;20036;-82
2022/12/13 11:17:43;;;;;;;30.40;18.70;;;;;;;6.88;100.00;100999.28;5260305;28;20024;-82
2022/12/13 11:20:19;;;;;;;30.23;18.67;;;;;;;6.89;100.00;100991.22;5261385;28;20021;-82
2022/12/13 11:23:01;;;;;;;29.23;17.63;;;;;;;6.88;100.00;100996.63;5243105;28;20037;-82
2022/12/13 11:25:39;;;;;;;30.58;19.40;;;;;;;6.08;100.00;101007.72;5260906;28;20052;-82
2022/12/13 11:28:57;;;;;;;30.40;18.83;;;;;;;5.58;100.00;100999.72;5262204;28;20049;-82
2022/12/13 11:32:17;;;;;;;31.13;19.33;;;;;;;5.43;100.00;100993.69;5252778;28;20084;-82
2022/12/13 11:35:27;;;;;;;32.13;19.80;;;;;;;5.03;100.00;100984.03;5235186;28;20056;-82
2022/12/13 11:38:29;;;;;;;29.08;18.77;;;;;;;4.79;100.00;100989.16;5255540;28;20053;-83
2022/12/13 11:41:16;;;;;;;30.95;19.83;;;;;;;4.11;100.00;100982.09;5259373;28;20026;-82